CheckWX is a tool to help pilots better visualize weather data.  It is not intended as a substitute for an official pre-flight weather briefing.

17:06:46 UTC

DTTG TAF
Gabès Matmata International Airport
Gabès, Tunisia
TAF DTTG 070900Z 0710/0719 08008KT 9999 FEW030

Apr-7@
10:00 UTC

Apr-7 @ 10:00 UTC

Apr-7@
19:00 UTC

Apr-7 @ 19:00 UTC

TAF DTTG 070900Z 0710/0719 08008KT 9999 FEW030
Wind
  • 080° at 8 KTS
Cloud Levels
  • Few at 3,000' AGL